createdAt,value
2023-02-21T00:02:42.180Z,37.88
2023-02-21T00:05:27.725Z,32.90
2023-02-21T00:08:14.425Z,36.67
2023-02-21T00:10:59.717Z,35.75
2023-02-21T00:13:45.028Z,40.10
2023-02-21T00:16:34.250Z,41.45
2023-02-21T00:19:19.484Z,41.53
2023-02-21T00:22:04.595Z,32.38
2023-02-21T00:24:51.386Z,36.75
2023-02-21T00:27:36.679Z,35.97
2023-02-21T00:30:23.027Z,38.63
2023-02-21T00:33:08.121Z,37.38
2023-02-21T00:35:53.400Z,38.65
2023-02-21T00:38:38.575Z,39.53
2023-02-21T00:41:25.588Z,35.55
2023-02-21T00:44:11.372Z,37.78
2023-02-21T00:46:56.608Z,36.63
2023-02-21T00:49:42.433Z,42.85
2023-02-21T00:52:28.298Z,36.92
2023-02-21T00:55:13.566Z,38.65
2023-02-21T00:58:00.309Z,33.88
2023-02-21T01:00:45.381Z,38.95
2023-02-21T01:03:30.815Z,45.63
2023-02-21T01:06:16.474Z,42.05
2023-02-21T01:09:02.653Z,47.30
2023-02-21T01:11:48.296Z,37.72
2023-02-21T01:14:35.346Z,37.92
2023-02-21T01:17:20.641Z,37.88
2023-02-21T01:20:06.127Z,40.60
2023-02-21T01:22:53.174Z,36.83
2023-02-21T01:25:39.572Z,40.53
2023-02-21T01:28:24.932Z,38.95
2023-02-21T01:31:11.415Z,39.72
2023-02-21T01:33:58.205Z,42.13
2023-02-21T01:36:44.624Z,41.85
2023-02-21T01:39:30.267Z,44.25
2023-02-21T01:42:16.023Z,42.60
2023-02-21T01:45:03.187Z,43.28
2023-02-21T01:47:50.892Z,39.90
2023-02-21T01:50:40.731Z,41.50
2023-02-21T01:53:29.638Z,47.47
2023-02-21T01:56:16.141Z,45.38
2023-02-21T01:59:02.742Z,42.90
2023-02-21T02:01:57.567Z,45.53
2023-02-21T02:04:44.589Z,45.60
2023-02-21T02:07:30.343Z,41.80
2023-02-21T02:10:15.437Z,44.47
2023-02-21T02:13:10.863Z,45.05
2023-02-21T02:15:50.544Z,45.10
2023-02-21T02:18:45.891Z,47.42
2023-02-21T02:21:51.470Z,42.35
2023-02-21T02:24:39.222Z,43.00
2023-02-21T02:27:36.685Z,45.70
2023-02-21T02:30:44.569Z,49.08
2023-02-21T02:33:41.360Z,47.80
2023-02-21T02:36:15.611Z,41.78
2023-02-21T02:38:54.133Z,43.28
2023-02-21T02:41:29.703Z,46.47
2023-02-21T02:44:05.822Z,47.88
2023-02-21T02:49:07.115Z,45.47
2023-02-21T02:51:37.347Z,43.75
2023-02-21T02:54:07.489Z,43.00
2023-02-21T02:56:36.968Z,45.83
2023-02-21T02:59:08.673Z,46.15
2023-02-21T03:02:01.507Z,50.35
2023-02-21T03:04:50.320Z,51.00
2023-02-21T03:07:26.948Z,52.13
2023-02-21T03:10:04.872Z,51.03
2023-02-21T03:12:39.867Z,48.72
2023-02-21T03:15:13.562Z,52.00
2023-02-21T03:17:44.694Z,52.20
2023-02-21T03:20:15.876Z,48.65
2023-02-21T03:22:46.868Z,57.35
2023-02-21T03:25:17.329Z,55.35
2023-02-21T03:27:48.755Z,54.65
2023-02-21T03:30:30.023Z,56.17
2023-02-21T03:32:59.028Z,48.85
2023-02-21T03:35:30.404Z,49.88
2023-02-21T03:38:00.785Z,56.65
2023-02-21T03:40:31.342Z,54.08
2023-02-21T03:43:02.361Z,51.80
2023-02-21T03:45:37.047Z,58.60
2023-02-21T03:48:26.161Z,58.70
2023-02-21T03:51:01.970Z,55.20
2023-02-21T03:53:37.066Z,53.78
2023-02-21T03:56:06.857Z,58.13
2023-02-21T03:58:49.966Z,58.05
2023-02-21T04:01:18.068Z,53.67
2023-02-21T04:03:45.992Z,57.47
2023-02-21T04:06:14.654Z,65.05
2023-02-21T04:08:43.887Z,60.80
2023-02-21T04:11:11.714Z,57.20
2023-02-21T04:13:42.498Z,56.13
2023-02-21T04:16:10.355Z,53.90
2023-02-21T04:18:39.318Z,49.72
2023-02-21T04:21:09.571Z,60.92
2023-02-21T04:23:37.907Z,53.33
2023-02-21T04:26:08.091Z,56.83
2023-02-21T04:28:42.426Z,60.38
2023-02-21T04:31:10.214Z,64.38
2023-02-21T04:33:38.277Z,59.45
2023-02-21T04:36:06.708Z,60.67
2023-02-21T04:38:41.852Z,57.53
2023-02-21T04:41:11.082Z,55.47
2023-02-21T04:43:39.256Z,59.85
2023-02-21T04:46:07.281Z,54.33
2023-02-21T04:48:35.130Z,62.03
2023-02-21T04:51:15.946Z,56.70
2023-02-21T04:53:44.527Z,56.97
2023-02-21T04:56:13.811Z,60.90
2023-02-21T04:58:45.689Z,60.65
2023-02-21T05:01:14.740Z,54.05
2023-02-21T05:03:42.728Z,56.85
2023-02-21T05:06:10.856Z,55.95
2023-02-21T05:11:08.793Z,55.97
2023-02-21T05:13:37.939Z,53.90
2023-02-21T05:16:06.351Z,57.13
2023-02-21T05:18:34.632Z,57.20
2023-02-21T05:21:03.457Z,63.22
2023-02-21T05:23:39.954Z,67.88
2023-02-21T05:26:10.188Z,68.63
2023-02-21T05:28:41.206Z,64.75
2023-02-21T05:31:09.752Z,58.25
2023-02-21T05:33:37.621Z,68.03
2023-02-21T05:36:06.167Z,65.53
2023-02-21T05:38:34.003Z,61.03
2023-02-21T05:41:01.896Z,66.15
2023-02-21T05:43:33.715Z,59.90
2023-02-21T05:46:03.014Z,69.10
2023-02-21T05:48:30.934Z,62.83
2023-02-21T05:50:58.681Z,66.70
2023-02-21T05:53:26.577Z,69.20
2023-02-21T05:55:54.327Z,70.70
2023-02-21T05:58:22.082Z,68.78
2023-02-21T06:00:49.825Z,61.65
2023-02-21T06:03:19.027Z,61.45
2023-02-21T06:05:46.805Z,63.25
2023-02-21T06:08:14.611Z,66.43
2023-02-21T06:10:42.446Z,65.88
2023-02-21T06:13:10.176Z,65.40
2023-02-21T06:15:38.011Z,72.00
2023-02-21T06:18:05.843Z,59.97
2023-02-21T06:20:35.013Z,73.80
2023-02-21T06:23:02.832Z,66.93
2023-02-21T06:25:30.604Z,63.75
2023-02-21T06:27:58.501Z,68.38
2023-02-21T06:30:26.550Z,73.15
2023-02-21T06:32:54.327Z,70.68
2023-02-21T06:35:22.119Z,70.97
2023-02-21T06:37:51.313Z,69.70
2023-02-21T06:40:19.212Z,70.80
2023-02-21T06:42:47.468Z,66.93
2023-02-21T06:45:15.246Z,64.95
2023-02-21T06:47:43.062Z,64.93
2023-02-21T06:50:10.952Z,69.95
2023-02-21T06:52:38.744Z,69.53
2023-02-21T06:55:08.955Z,75.90
2023-02-21T06:57:36.751Z,68.93
2023-02-21T07:00:05.199Z,72.93
2023-02-21T07:02:33.020Z,74.18
2023-02-21T07:05:00.872Z,83.05
2023-02-21T07:07:28.699Z,85.45
2023-02-21T07:09:56.477Z,87.97
2023-02-21T07:12:25.655Z,79.07
2023-02-21T07:14:53.464Z,73.78
2023-02-21T07:17:21.297Z,90.05
2023-02-21T07:19:49.078Z,75.35
2023-02-21T07:22:16.828Z,76.82
2023-02-21T07:24:44.627Z,77.80
2023-02-21T07:27:12.404Z,78.85
2023-02-21T07:29:41.572Z,85.75
2023-02-21T07:32:09.334Z,75.57
2023-02-21T07:34:37.176Z,86.22
2023-02-21T07:37:04.946Z,75.65
2023-02-21T07:39:32.722Z,73.22
2023-02-21T07:42:00.456Z,81.28
2023-02-21T07:44:32.340Z,82.47
2023-02-21T07:47:01.723Z,76.57
2023-02-21T07:49:29.624Z,71.68
2023-02-21T07:51:57.372Z,85.10
2023-02-21T07:54:25.155Z,85.80
2023-02-21T07:56:53.199Z,79.72
2023-02-21T07:59:20.960Z,80.30
2023-02-21T08:01:48.993Z,81.97
2023-02-21T08:04:21.054Z,85.07
2023-02-21T08:06:49.338Z,83.07
2023-02-21T08:09:17.339Z,83.57
2023-02-21T08:11:45.162Z,79.50
2023-02-21T08:14:12.974Z,86.60
2023-02-21T08:16:40.785Z,89.28
2023-02-21T08:19:09.784Z,78.60
2023-02-21T08:21:39.381Z,94.35
2023-02-21T08:24:07.135Z,89.13
2023-02-21T08:26:34.938Z,83.88
2023-02-21T08:29:03.761Z,84.60
2023-02-21T08:31:31.623Z,100.80
2023-02-21T08:33:59.529Z,87.53
2023-02-21T08:36:32.831Z,100.90
2023-02-21T08:39:01.979Z,91.45
2023-02-21T08:41:36.768Z,82.75
2023-02-21T08:44:04.560Z,81.80
2023-02-21T08:46:32.459Z,88.78
2023-02-21T08:49:00.277Z,91.50
2023-02-21T08:51:28.672Z,70.53
2023-02-21T08:53:56.552Z,73.22
2023-02-21T08:56:26.696Z,83.47
2023-02-21T08:58:55.132Z,77.30
2023-02-21T09:01:24.045Z,77.18
2023-02-21T09:03:52.269Z,73.53
2023-02-21T09:06:20.109Z,70.78
2023-02-21T09:08:47.852Z,70.10
2023-02-21T09:11:15.904Z,68.95
2023-02-21T09:16:12.829Z,63.13
2023-02-21T09:18:40.644Z,58.20
2023-02-21T09:21:08.469Z,71.85
2023-02-21T09:23:36.266Z,69.45
2023-02-21T09:26:04.070Z,67.68
2023-02-21T09:28:32.309Z,63.42
2023-02-21T09:31:01.501Z,68.82
2023-02-21T09:33:30.907Z,65.60
2023-02-21T09:35:58.680Z,67.32
2023-02-21T09:38:26.454Z,65.22
2023-02-21T09:40:59.120Z,70.45
2023-02-21T09:43:34.159Z,67.97
2023-02-21T09:46:06.363Z,61.25
2023-02-21T09:48:34.678Z,69.88
2023-02-21T09:51:06.556Z,63.20
2023-02-21T09:53:38.169Z,65.90
2023-02-21T09:56:12.434Z,62.10
2023-02-21T09:58:43.303Z,61.47
2023-02-21T10:01:31.344Z,68.32
2023-02-21T10:04:08.792Z,64.70
2023-02-21T10:06:44.669Z,64.13
2023-02-21T10:09:25.767Z,60.97
2023-02-21T10:12:02.605Z,57.92
2023-02-21T10:14:38.377Z,61.22
2023-02-21T10:17:16.835Z,61.03
2023-02-21T10:19:48.308Z,62.42
2023-02-21T10:22:20.958Z,58.30
2023-02-21T10:24:49.673Z,58.75
2023-02-21T10:27:20.001Z,63.60
2023-02-21T10:29:54.632Z,64.88
2023-02-21T10:32:25.529Z,70.93
2023-02-21T10:34:55.445Z,55.75
2023-02-21T10:37:35.088Z,59.22
2023-02-21T10:40:08.980Z,61.70
2023-02-21T10:42:42.471Z,58.35
2023-02-21T10:45:13.357Z,62.30
2023-02-21T10:47:54.717Z,62.80
2023-02-21T10:50:42.408Z,55.80
2023-02-21T10:53:10.990Z,54.33
2023-02-21T10:55:38.891Z,55.75
2023-02-21T10:58:10.434Z,61.90
2023-02-21T11:00:42.083Z,58.17
2023-02-21T11:06:48.293Z,24.77
2023-02-21T11:09:32.227Z,32.75
2023-02-21T11:12:06.512Z,23.88
2023-02-21T11:14:35.625Z,19.48
2023-02-21T11:17:16.418Z,14.73
2023-02-21T11:19:50.398Z,13.07
2023-02-21T11:22:22.330Z,13.05
2023-02-21T11:25:02.181Z,13.57
2023-02-21T11:27:32.511Z,13.32
2023-02-21T11:30:02.620Z,11.85
2023-02-21T11:32:36.355Z,12.88
2023-02-21T11:35:07.838Z,17.00
2023-02-21T11:37:49.977Z,9.90
2023-02-21T11:40:35.649Z,10.63
2023-02-21T11:43:17.789Z,12.65
2023-02-21T11:46:05.243Z,10.75
2023-02-21T11:48:38.372Z,8.88
2023-02-21T11:51:15.061Z,12.75
2023-02-21T11:53:45.084Z,10.68
2023-02-21T11:56:21.532Z,11.30
2023-02-21T11:58:59.008Z,10.82
2023-02-21T12:01:32.883Z,11.30
2023-02-21T12:04:29.377Z,10.73
2023-02-21T12:07:05.787Z,13.43
2023-02-21T12:09:45.112Z,12.35
2023-02-21T12:12:28.615Z,10.20
2023-02-21T12:15:07.058Z,11.23
2023-02-21T12:17:52.146Z,10.75
2023-02-21T12:20:28.869Z,11.18
2023-02-21T12:23:18.057Z,12.63
2023-02-21T12:26:13.274Z,11.00
2023-02-21T12:28:59.543Z,11.27
2023-02-21T12:31:39.649Z,13.70
2023-02-21T12:34:17.930Z,10.80
2023-02-21T12:37:03.959Z,10.95
2023-02-21T12:39:56.146Z,12.15
2023-02-21T12:42:41.939Z,11.18
2023-02-21T12:45:23.454Z,11.82
2023-02-21T12:47:57.995Z,12.55
2023-02-21T12:50:33.468Z,10.95
2023-02-21T12:53:04.527Z,11.55
2023-02-21T12:55:35.660Z,11.55
2023-02-21T12:58:14.075Z,11.45
2023-02-21T13:00:47.592Z,11.73
2023-02-21T13:03:27.674Z,12.02
2023-02-21T13:06:00.482Z,11.80
2023-02-21T13:08:33.124Z,11.93
2023-02-21T13:11:11.267Z,10.50
2023-02-21T13:13:40.846Z,10.55
2023-02-21T13:16:12.991Z,13.77
2023-02-21T13:18:44.815Z,11.35
2023-02-21T13:21:24.299Z,12.60
2023-02-21T13:23:57.285Z,10.27
2023-02-21T13:26:45.733Z,12.40
2023-02-21T13:29:20.892Z,10.95
2023-02-21T13:32:00.155Z,12.85
2023-02-21T13:34:31.531Z,13.85
2023-02-21T13:37:05.998Z,12.48
2023-02-21T13:39:37.530Z,14.32
2023-02-21T13:42:09.510Z,13.43
2023-02-21T13:44:43.306Z,12.15
2023-02-21T13:47:15.346Z,12.88
2023-02-21T13:50:01.074Z,12.50
2023-02-21T13:52:53.910Z,11.70
2023-02-21T13:55:31.440Z,11.20
2023-02-21T13:58:46.728Z,12.02
2023-02-21T14:01:50.079Z,13.02
2023-02-21T14:05:01.248Z,11.20
2023-02-21T14:07:43.613Z,11.75
2023-02-21T14:10:32.944Z,12.00
2023-02-21T14:13:05.080Z,12.80
2023-02-21T14:15:43.117Z,11.40
2023-02-21T14:18:23.553Z,10.63
2023-02-21T14:20:55.157Z,11.23
2023-02-21T14:23:26.769Z,12.30
2023-02-21T14:26:01.183Z,13.55
2023-02-21T14:28:51.797Z,11.15
2023-02-21T14:31:55.041Z,11.63
2023-02-21T14:34:28.690Z,12.27
2023-02-21T14:37:01.107Z,11.00
2023-02-21T14:39:35.609Z,10.27
2023-02-21T14:42:45.061Z,11.82
2023-02-21T14:45:24.901Z,10.50
2023-02-21T14:48:05.434Z,12.38
2023-02-21T14:50:44.776Z,11.82
2023-02-21T14:53:43.998Z,10.38
2023-02-21T14:56:35.638Z,11.30
2023-02-21T14:59:26.848Z,11.48
2023-02-21T15:02:03.926Z,13.27
2023-02-21T15:04:38.261Z,13.98
2023-02-21T15:07:18.740Z,9.82
2023-02-21T15:09:47.190Z,14.52
2023-02-21T15:12:18.272Z,11.48
2023-02-21T15:14:51.247Z,10.95
2023-02-21T15:17:23.087Z,13.48
2023-02-21T15:20:05.594Z,13.98
2023-02-21T15:22:34.847Z,10.10
2023-02-21T15:25:21.031Z,11.55
2023-02-21T15:28:00.711Z,11.13
2023-02-21T15:30:34.239Z,10.32
2023-02-21T15:33:07.759Z,11.07
2023-02-21T15:35:38.541Z,11.40
2023-02-21T15:38:16.114Z,11.93
2023-02-21T15:40:44.747Z,13.98
2023-02-21T15:43:32.296Z,10.70
2023-02-21T15:46:03.026Z,11.98
2023-02-21T15:48:31.177Z,11.43
2023-02-21T15:51:04.792Z,9.77
2023-02-21T15:53:34.172Z,12.65
2023-02-21T15:56:21.572Z,11.45
2023-02-21T15:59:11.609Z,10.68
2023-02-21T16:01:39.962Z,10.07
2023-02-21T16:04:22.466Z,11.60
2023-02-21T16:06:53.347Z,9.43
2023-02-21T16:09:31.349Z,9.93
2023-02-21T16:12:02.248Z,12.00
2023-02-21T16:14:40.295Z,9.00
2023-02-21T16:17:22.437Z,11.15
2023-02-21T16:19:53.849Z,10.25
2023-02-21T16:22:29.323Z,10.02
2023-02-21T16:25:20.741Z,9.35
2023-02-21T16:27:51.243Z,12.52
2023-02-21T16:30:21.565Z,10.40
2023-02-21T16:32:51.166Z,7.78
2023-02-21T16:35:21.571Z,9.55
2023-02-21T16:37:50.802Z,9.02
2023-02-21T16:40:24.896Z,8.48
2023-02-21T16:42:54.056Z,8.05
2023-02-21T16:45:22.182Z,9.13
2023-02-21T16:47:52.158Z,8.20
2023-02-21T16:50:23.497Z,8.15
2023-02-21T16:52:51.358Z,10.93
2023-02-21T16:55:20.959Z,8.70
2023-02-21T16:57:50.253Z,8.77
2023-02-21T17:00:21.866Z,7.22
2023-02-21T17:02:50.024Z,8.57
2023-02-21T17:05:18.551Z,8.90
2023-02-21T17:07:46.329Z,8.75
2023-02-21T17:10:14.377Z,11.63
2023-02-21T17:12:43.653Z,10.32
2023-02-21T17:15:11.980Z,9.23
2023-02-21T17:17:40.546Z,13.05
2023-02-21T17:20:15.564Z,9.98
2023-02-21T17:22:43.369Z,10.02
2023-02-21T17:25:12.144Z,9.63
2023-02-21T17:27:39.887Z,10.52
2023-02-21T17:30:11.355Z,10.70
2023-02-21T17:32:39.268Z,9.82
2023-02-21T17:35:07.335Z,12.02
2023-02-21T17:37:35.084Z,10.13
2023-02-21T17:40:05.069Z,7.10
2023-02-21T17:42:32.872Z,11.15
2023-02-21T17:45:02.211Z,10.65
2023-02-21T17:47:31.383Z,8.40
2023-02-21T17:50:02.503Z,10.07
2023-02-21T17:52:31.197Z,8.98
2023-02-21T17:54:59.138Z,10.07
2023-02-21T17:57:26.892Z,11.32
2023-02-21T17:59:54.795Z,10.13
2023-02-21T18:02:22.537Z,8.32
2023-02-21T18:04:51.707Z,9.05
2023-02-21T18:07:19.529Z,9.90
2023-02-21T18:09:47.600Z,13.13
2023-02-21T18:12:16.391Z,9.73
2023-02-21T18:14:44.202Z,9.27
2023-02-21T18:17:12.562Z,10.10
2023-02-21T18:19:40.341Z,7.88
2023-02-21T18:22:09.747Z,8.27
2023-02-21T18:24:38.690Z,8.52
2023-02-21T18:27:06.458Z,13.93
2023-02-21T18:29:34.240Z,8.43
2023-02-21T18:32:02.027Z,9.73
2023-02-21T18:34:29.815Z,7.65
2023-02-21T18:36:57.652Z,7.45
2023-02-21T18:39:26.954Z,9.32
2023-02-21T18:41:54.835Z,7.25
2023-02-21T18:44:22.772Z,8.75
2023-02-21T18:46:54.028Z,7.45
2023-02-21T18:49:23.037Z,8.93
2023-02-21T18:51:51.402Z,8.02
2023-02-21T18:54:19.831Z,7.50
2023-02-21T18:56:50.379Z,7.55
2023-02-21T18:59:19.153Z,9.43
2023-02-21T19:01:49.705Z,10.63
2023-02-21T19:04:17.548Z,6.47
2023-02-21T19:06:45.516Z,9.07
2023-02-21T19:09:13.830Z,8.10
2023-02-21T19:11:41.751Z,7.30
2023-02-21T19:14:10.931Z,6.80
2023-02-21T19:16:39.059Z,7.05
2023-02-21T19:19:07.091Z,7.30
2023-02-21T19:21:34.978Z,9.30
2023-02-21T19:24:04.118Z,8.32
2023-02-21T19:26:32.090Z,7.70
2023-02-21T19:28:59.926Z,8.25
2023-02-21T19:31:29.240Z,9.35
2023-02-21T19:33:57.134Z,8.93
2023-02-21T19:36:25.025Z,7.75
2023-02-21T19:38:52.838Z,7.53
2023-02-21T19:41:21.677Z,7.25
2023-02-21T19:43:49.482Z,6.60
2023-02-21T19:46:21.960Z,6.82
2023-02-21T19:48:51.602Z,7.00
2023-02-21T19:51:21.734Z,8.68
2023-02-21T19:53:49.737Z,7.88
2023-02-21T19:56:17.866Z,7.80
2023-02-21T19:58:47.192Z,7.68
2023-02-21T20:01:15.680Z,7.32
2023-02-21T20:03:44.315Z,7.28
2023-02-21T20:06:13.517Z,7.15
2023-02-21T20:08:43.916Z,7.15
2023-02-21T20:11:11.809Z,5.97
2023-02-21T20:13:39.610Z,8.40
2023-02-21T20:16:07.379Z,6.90
2023-02-21T20:18:35.153Z,6.32
2023-02-21T20:21:03.115Z,8.15
2023-02-21T20:23:32.229Z,7.13
2023-02-21T20:25:59.961Z,6.68
2023-02-21T20:28:27.839Z,6.90
2023-02-21T20:30:55.719Z,8.77
2023-02-21T20:33:24.691Z,9.18
2023-02-21T20:35:53.016Z,7.63
2023-02-21T20:38:21.496Z,7.68
2023-02-21T20:40:50.771Z,6.38
2023-02-21T20:43:18.531Z,9.55
2023-02-21T20:45:46.356Z,10.10
2023-02-21T20:48:14.306Z,8.15
2023-02-21T20:50:42.575Z,7.60
2023-02-21T20:53:11.303Z,5.70
2023-02-21T20:55:40.252Z,7.75
2023-02-21T20:58:10.430Z,7.13
2023-02-21T21:00:38.542Z,6.57
2023-02-21T21:03:06.939Z,9.20
2023-02-21T21:05:34.732Z,7.43
2023-02-21T21:08:02.499Z,6.80
2023-02-21T21:10:30.294Z,8.35
2023-02-21T21:12:58.270Z,7.38
2023-02-21T21:15:27.714Z,8.38
2023-02-21T21:17:55.879Z,9.50
2023-02-21T21:20:27.035Z,8.45
2023-02-21T21:22:54.846Z,9.75
2023-02-21T21:25:23.593Z,7.75
2023-02-21T21:27:51.956Z,9.20
2023-02-21T21:30:22.876Z,8.50
2023-02-21T21:32:52.117Z,10.60
2023-02-21T21:35:20.826Z,7.95
2023-02-21T21:37:49.116Z,10.77
2023-02-21T21:40:17.476Z,8.45
2023-02-21T21:42:46.809Z,8.55
2023-02-21T21:45:24.602Z,9.73
2023-02-21T21:47:58.402Z,10.23
2023-02-21T21:50:26.762Z,9.75
2023-02-21T21:52:57.449Z,9.70
2023-02-21T21:55:28.603Z,8.10
2023-02-21T21:57:58.691Z,8.38
2023-02-21T22:00:29.034Z,9.38
2023-02-21T22:03:01.917Z,10.13
2023-02-21T22:05:31.579Z,12.18
2023-02-21T22:08:00.348Z,9.60
2023-02-21T22:10:29.143Z,11.80
2023-02-21T22:12:59.961Z,10.07
2023-02-21T22:15:30.232Z,12.00
2023-02-21T22:18:03.800Z,10.25
2023-02-21T22:20:31.821Z,11.52
2023-02-21T22:23:00.051Z,12.93
2023-02-21T22:25:30.245Z,10.85
2023-02-21T22:27:58.957Z,12.77
2023-02-21T22:30:26.879Z,11.93
2023-02-21T22:32:54.691Z,11.75
2023-02-21T22:35:25.150Z,10.63
2023-02-21T22:37:55.202Z,10.60
2023-02-21T22:40:25.799Z,11.63
2023-02-21T22:42:54.374Z,12.60
2023-02-21T22:45:23.638Z,11.65
2023-02-21T22:47:53.925Z,10.25
2023-02-21T22:50:24.243Z,11.75
2023-02-21T22:52:52.447Z,11.07
2023-02-21T22:55:20.203Z,10.95
2023-02-21T22:57:47.951Z,9.82
2023-02-21T23:00:20.215Z,10.55
2023-02-21T23:02:48.641Z,9.75
2023-02-21T23:05:19.397Z,10.32
2023-02-21T23:07:51.292Z,10.82
2023-02-21T23:10:23.686Z,9.77
2023-02-21T23:12:52.600Z,9.25
2023-02-21T23:15:22.320Z,9.07
2023-02-21T23:17:51.528Z,11.57
2023-02-21T23:20:22.609Z,10.15
2023-02-21T23:22:53.731Z,9.05
2023-02-21T23:25:25.497Z,11.13
2023-02-21T23:27:56.626Z,10.32
2023-02-21T23:30:27.512Z,9.40
2023-02-21T23:32:56.548Z,12.82
2023-02-21T23:35:24.330Z,10.50
2023-02-21T23:37:53.494Z,11.15
2023-02-21T23:40:23.471Z,8.77
2023-02-21T23:42:55.457Z,10.23
2023-02-21T23:45:25.017Z,10.73
2023-02-21T23:47:54.927Z,10.45
2023-02-21T23:50:30.416Z,10.38
2023-02-21T23:53:00.152Z,10.27
2023-02-21T23:55:29.885Z,11.63
2023-02-21T23:57:59.847Z,10.65
